sensor_id;sensor_type;location;lat;lon;timestamp;pressure;altitude;pressure_sealevel;temperature;humidity
60015;BME280;45867;52.480;6.056;2023-05-29T00:00:21;102483.72;;;8.89;100.00
60015;BME280;45867;52.480;6.056;2023-05-29T00:02:48;102493.00;;;8.99;100.00
60015;BME280;45867;52.480;6.056;2023-05-29T00:05:14;102498.56;;;8.91;100.00
60015;BME280;45867;52.480;6.056;2023-05-29T00:07:40;102490.69;;;8.84;100.00
60015;BME280;45867;52.480;6.056;2023-05-29T00:10:07;102497.56;;;8.85;100.00
60015;BME280;45867;52.480;6.056;2023-05-29T00:12:33;102496.16;;;8.82;100.00
60015;BME280;45867;52.480;6.056;2023-05-29T00:14:58;102497.03;;;8.76;100.00
60015;BME280;45867;52.480;6.056;2023-05-29T00:17:24;102492.50;;;8.83;100.00
60015;BME280;45867;52.480;6.056;2023-05-29T00:19:50;102497.03;;;8.70;100.00
60015;BME280;45867;52.480;6.056;2023-05-29T00:22:15;102505.78;;;8.70;100.00
60015;BME280;45867;52.480;6.056;2023-05-29T00:24:41;102500.38;;;8.58;100.00
60015;BME280;45867;52.480;6.056;2023-05-29T00:27:06;102507.66;;;8.63;100.00
60015;BME280;45867;52.480;6.056;2023-05-29T00:29:31;102507.06;;;8.61;100.00
60015;BME280;45867;52.480;6.056;2023-05-29T00:31:57;102506.44;;;8.59;100.00
60015;BME280;45867;52.480;6.056;2023-05-29T00:34:22;102512.34;;;8.61;100.00
60015;BME280;45867;52.480;6.056;2023-05-29T00:36:48;102510.06;;;8.64;100.00
60015;BME280;45867;52.480;6.056;2023-05-29T00:39:14;102515.03;;;8.54;100.00
60015;BME280;45867;52.480;6.056;2023-05-29T00:41:39;102505.69;;;8.52;100.00
60015;BME280;45867;52.480;6.056;2023-05-29T00:44:04;102507.53;;;8.51;100.00
60015;BME280;45867;52.480;6.056;2023-05-29T00:46:31;102507.09;;;8.54;100.00
60015;BME280;45867;52.480;6.056;2023-05-29T00:49:00;102502.63;;;8.48;100.00
60015;BME280;45867;52.480;6.056;2023-05-29T00:51:27;102511.00;;;8.38;100.00
60015;BME280;45867;52.480;6.056;2023-05-29T00:53:54;102498.22;;;8.29;100.00
60015;BME280;45867;52.480;6.056;2023-05-29T00:56:22;102514.50;;;8.32;100.00
60015;BME280;45867;52.480;6.056;2023-05-29T00:58:51;102512.44;;;8.41;100.00
60015;BME280;45867;52.480;6.056;2023-05-29T01:01:18;102520.56;;;8.33;100.00
60015;BME280;45867;52.480;6.056;2023-05-29T01:03:43;102518.13;;;8.31;100.00
60015;BME280;45867;52.480;6.056;2023-05-29T01:06:10;102512.09;;;8.17;100.00
60015;BME280;45867;52.480;6.056;2023-05-29T01:08:35;102522.66;;;8.17;100.00
60015;BME280;45867;52.480;6.056;2023-05-29T01:11:27;102524.91;;;8.14;100.00
60015;BME280;45867;52.480;6.056;2023-05-29T01:13:55;102524.47;;;8.17;100.00
60015;BME280;45867;52.480;6.056;2023-05-29T01:16:35;102530.78;;;8.16;100.00
60015;BME280;45867;52.480;6.056;2023-05-29T01:19:27;102532.03;;;8.07;100.00
60015;BME280;45867;52.480;6.056;2023-05-29T01:27:09;102542.00;;;7.98;100.00
60015;BME280;45867;52.480;6.056;2023-05-29T01:29:55;102527.78;;;7.92;100.00
60015;BME280;45867;52.480;6.056;2023-05-29T01:32:21;102539.16;;;7.93;100.00
60015;BME280;45867;52.480;6.056;2023-05-29T01:34:46;102543.66;;;7.86;100.00
60015;BME280;45867;52.480;6.056;2023-05-29T01:37:11;102544.47;;;7.86;100.00
60015;BME280;45867;52.480;6.056;2023-05-29T01:39:38;102551.38;;;7.81;100.00
60015;BME280;45867;52.480;6.056;2023-05-29T01:42:08;102557.06;;;7.77;100.00
60015;BME280;45867;52.480;6.056;2023-05-29T01:44:34;102563.53;;;7.82;100.00
60015;BME280;45867;52.480;6.056;2023-05-29T01:47:00;102569.00;;;7.93;100.00
60015;BME280;45867;52.480;6.056;2023-05-29T01:49:27;102553.59;;;7.77;100.00
60015;BME280;45867;52.480;6.056;2023-05-29T01:51:54;102567.84;;;7.69;100.00
60015;BME280;45867;52.480;6.056;2023-05-29T01:54:22;102569.84;;;7.74;100.00
60015;BME280;45867;52.480;6.056;2023-05-29T01:56:48;102567.22;;;7.81;100.00
60015;BME280;45867;52.480;6.056;2023-05-29T01:59:14;102568.00;;;7.81;100.00
60015;BME280;45867;52.480;6.056;2023-05-29T02:01:40;102573.28;;;7.74;100.00
60015;BME280;45867;52.480;6.056;2023-05-29T02:04:06;102567.41;;;7.72;100.00
60015;BME280;45867;52.480;6.056;2023-05-29T02:06:31;102567.00;;;7.75;100.00
60015;BME280;45867;52.480;6.056;2023-05-29T02:08:58;102563.78;;;7.67;100.00
60015;BME280;45867;52.480;6.056;2023-05-29T02:11:23;102563.13;;;7.58;100.00
60015;BME280;45867;52.480;6.056;2023-05-29T02:13:51;102565.41;;;7.61;100.00
60015;BME280;45867;52.480;6.056;2023-05-29T02:16:16;102567.81;;;7.63;100.00
60015;BME280;45867;52.480;6.056;2023-05-29T02:18:42;102554.84;;;7.61;100.00
60015;BME280;45867;52.480;6.056;2023-05-29T02:21:08;102556.06;;;7.59;100.00
60015;BME280;45867;52.480;6.056;2023-05-29T02:23:34;102558.69;;;7.52;100.00
60015;BME280;45867;52.480;6.056;2023-05-29T02:25:59;102560.13;;;7.48;100.00
60015;BME280;45867;52.480;6.056;2023-05-29T02:28:25;102559.28;;;7.54;100.00
60015;BME280;45867;52.480;6.056;2023-05-29T02:30:50;102553.81;;;7.49;100.00
60015;BME280;45867;52.480;6.056;2023-05-29T02:33:16;102567.19;;;7.47;100.00
60015;BME280;45867;52.480;6.056;2023-05-29T02:35:41;102552.81;;;7.43;100.00
60015;BME280;45867;52.480;6.056;2023-05-29T02:38:06;102549.16;;;7.38;100.00
60015;BME280;45867;52.480;6.056;2023-05-29T02:40:32;102555.44;;;7.37;100.00
60015;BME280;45867;52.480;6.056;2023-05-29T02:42:57;102569.66;;;7.42;100.00
60015;BME280;45867;52.480;6.056;2023-05-29T02:45:22;102564.75;;;7.39;100.00
60015;BME280;45867;52.480;6.056;2023-05-29T02:47:47;102560.91;;;7.35;100.00
60015;BME280;45867;52.480;6.056;2023-05-29T02:50:13;102564.94;;;7.31;100.00
60015;BME280;45867;52.480;6.056;2023-05-29T02:52:40;102563.16;;;7.31;100.00
60015;BME280;45867;52.480;6.056;2023-05-29T02:55:06;102564.75;;;7.26;100.00
60015;BME280;45867;52.480;6.056;2023-05-29T02:57:32;102563.53;;;7.22;100.00
60015;BME280;45867;52.480;6.056;2023-05-29T02:59:57;102568.19;;;7.20;100.00
60015;BME280;45867;52.480;6.056;2023-05-29T03:02:23;102572.03;;;7.17;100.00
60015;BME280;45867;52.480;6.056;2023-05-29T03:04:48;102567.78;;;7.23;100.00
60015;BME280;45867;52.480;6.056;2023-05-29T03:07:17;102565.13;;;7.23;100.00
60015;BME280;45867;52.480;6.056;2023-05-29T03:09:43;102575.06;;;7.14;100.00
60015;BME280;45867;52.480;6.056;2023-05-29T03:12:08;102572.47;;;7.21;100.00
60015;BME280;45867;52.480;6.056;2023-05-29T03:14:34;102568.38;;;7.11;100.00
60015;BME280;45867;52.480;6.056;2023-05-29T03:17:03;102560.69;;;7.10;100.00
60015;BME280;45867;52.480;6.056;2023-05-29T03:19:28;102556.22;;;7.17;100.00
60015;BME280;45867;52.480;6.056;2023-05-29T03:21:54;102562.09;;;7.13;100.00
60015;BME280;45867;52.480;6.056;2023-05-29T03:24:20;102556.81;;;7.06;100.00
60015;BME280;45867;52.480;6.056;2023-05-29T03:26:45;102561.66;;;7.02;100.00
60015;BME280;45867;52.480;6.056;2023-05-29T03:29:11;102554.34;;;6.98;100.00
60015;BME280;45867;52.480;6.056;2023-05-29T03:31:36;102547.47;;;6.97;100.00
60015;BME280;45867;52.480;6.056;2023-05-29T03:34:01;102558.00;;;7.03;100.00
60015;BME280;45867;52.480;6.056;2023-05-29T03:36:27;102549.06;;;6.98;100.00
60015;BME280;45867;52.480;6.056;2023-05-29T03:38:53;102548.28;;;6.97;100.00
60015;BME280;45867;52.480;6.056;2023-05-29T03:41:18;102541.16;;;6.91;100.00
60015;BME280;45867;52.480;6.056;2023-05-29T03:43:44;102552.94;;;7.02;100.00
60015;BME280;45867;52.480;6.056;2023-05-29T03:46:09;102539.75;;;6.88;100.00
60015;BME280;45867;52.480;6.056;2023-05-29T03:48:35;102553.94;;;7.01;100.00
60015;BME280;45867;52.480;6.056;2023-05-29T03:51:00;102558.63;;;7.05;100.00
60015;BME280;45867;52.480;6.056;2023-05-29T03:53:25;102558.66;;;7.12;100.00
60015;BME280;45867;52.480;6.056;2023-05-29T03:55:51;102561.09;;;7.20;100.00
60015;BME280;45867;52.480;6.056;2023-05-29T03:58:16;102562.31;;;7.18;100.00
60015;BME280;45867;52.480;6.056;2023-05-29T04:00:41;102556.59;;;7.14;100.00
60015;BME280;45867;52.480;6.056;2023-05-29T04:03:07;102556.41;;;7.09;100.00
60015;BME280;45867;52.480;6.056;2023-05-29T04:05:33;102573.84;;;7.17;100.00
60015;BME280;45867;52.480;6.056;2023-05-29T04:07:58;102567.59;;;7.18;100.00
60015;BME280;45867;52.480;6.056;2023-05-29T04:10:30;102573.44;;;7.20;100.00
60015;BME280;45867;52.480;6.056;2023-05-29T04:12:59;102579.56;;;7.20;100.00
60015;BME280;45867;52.480;6.056;2023-05-29T04:15:24;102584.44;;;7.23;100.00
60015;BME280;45867;52.480;6.056;2023-05-29T04:17:51;102587.28;;;7.28;100.00
60015;BME280;45867;52.480;6.056;2023-05-29T04:20:16;102593.56;;;7.34;100.00
60015;BME280;45867;52.480;6.056;2023-05-29T04:22:41;102602.28;;;7.28;100.00
60015;BME280;45867;52.480;6.056;2023-05-29T04:25:07;102609.41;;;7.34;100.00
60015;BME280;45867;52.480;6.056;2023-05-29T04:27:32;102610.81;;;7.30;100.00
60015;BME280;45867;52.480;6.056;2023-05-29T04:30:09;102612.41;;;7.31;100.00
60015;BME280;45867;52.480;6.056;2023-05-29T04:32:35;102609.19;;;7.36;100.00
60015;BME280;45867;52.480;6.056;2023-05-29T04:35:01;102610.41;;;7.46;100.00
60015;BME280;45867;52.480;6.056;2023-05-29T04:37:28;102610.84;;;7.56;100.00
60015;BME280;45867;52.480;6.056;2023-05-29T04:39:57;102611.03;;;7.55;100.00
60015;BME280;45867;52.480;6.056;2023-05-29T04:42:23;102604.75;;;7.56;100.00
60015;BME280;45867;52.480;6.056;2023-05-29T04:44:50;102607.38;;;7.63;100.00
60015;BME280;45867;52.480;6.056;2023-05-29T04:47:18;102608.63;;;7.67;100.00
60015;BME280;45867;52.480;6.056;2023-05-29T04:49:44;102611.88;;;7.75;100.00
60015;BME280;45867;52.480;6.056;2023-05-29T04:52:14;102610.03;;;7.83;100.00
60015;BME280;45867;52.480;6.056;2023-05-29T04:54:40;102615.72;;;7.93;100.00
60015;BME280;45867;52.480;6.056;2023-05-29T04:57:05;102603.13;;;7.95;100.00
60015;BME280;45867;52.480;6.056;2023-05-29T04:59:30;102612.03;;;8.07;100.00
60015;BME280;45867;52.480;6.056;2023-05-29T05:01:56;102609.00;;;8.10;100.00
60015;BME280;45867;52.480;6.056;2023-05-29T05:04:21;102606.97;;;8.19;100.00
60015;BME280;45867;52.480;6.056;2023-05-29T05:06:46;102614.66;;;8.27;100.00
60015;BME280;45867;52.480;6.056;2023-05-29T05:09:12;102618.72;;;8.43;100.00
60015;BME280;45867;52.480;6.056;2023-05-29T05:11:37;102617.69;;;8.44;100.00
60015;BME280;45867;52.480;6.056;2023-05-29T05:14:03;102620.13;;;8.52;100.00
60015;BME280;45867;52.480;6.056;2023-05-29T05:16:28;102617.44;;;8.59;100.00
60015;BME280;45867;52.480;6.056;2023-05-29T05:18:56;102627.16;;;8.72;100.00
60015;BME280;45867;52.480;6.056;2023-05-29T05:21:21;102634.63;;;8.88;100.00
60015;BME280;45867;52.480;6.056;2023-05-29T05:23:50;102628.72;;;9.24;100.00
60015;BME280;45867;52.480;6.056;2023-05-29T05:26:15;102621.97;;;9.60;100.00
60015;BME280;45867;52.480;6.056;2023-05-29T05:28:40;102621.34;;;9.90;100.00
60015;BME280;45867;52.480;6.056;2023-05-29T05:31:06;102626.75;;;10.20;100.00
60015;BME280;45867;52.480;6.056;2023-05-29T05:33:31;102626.44;;;10.35;100.00
60015;BME280;45867;52.480;6.056;2023-05-29T05:35:56;102627.63;;;10.57;100.00
60015;BME280;45867;52.480;6.056;2023-05-29T05:38:22;102625.47;;;10.66;100.00
60015;BME280;45867;52.480;6.056;2023-05-29T05:40:47;102629.31;;;10.88;100.00
60015;BME280;45867;52.480;6.056;2023-05-29T05:43:12;102635.81;;;11.04;100.00
60015;BME280;45867;52.480;6.056;2023-05-29T05:45:38;102618.25;;;10.92;100.00
60015;BME280;45867;52.480;6.056;2023-05-29T05:48:07;102635.19;;;11.21;100.00
60015;BME280;45867;52.480;6.056;2023-05-29T05:50:32;102638.91;;;11.31;100.00
60015;BME280;45867;52.480;6.056;2023-05-29T05:52:59;102611.47;;;11.38;100.00
60015;BME280;45867;52.480;6.056;2023-05-29T05:55:24;102624.44;;;11.58;100.00
60015;BME280;45867;52.480;6.056;2023-05-29T05:57:54;102627.69;;;11.71;100.00
60015;BME280;45867;52.480;6.056;2023-05-29T06:00:24;102619.59;;;11.78;100.00
60015;BME280;45867;52.480;6.056;2023-05-29T06:02:50;102628.78;;;12.17;100.00
60015;BME280;45867;52.480;6.056;2023-05-29T06:05:16;102626.69;;;12.31;100.00
60015;BME280;45867;52.480;6.056;2023-05-29T06:07:41;102622.13;;;12.43;100.00
60015;BME280;45867;52.480;6.056;2023-05-29T06:10:07;102618.91;;;12.53;100.00
60015;BME280;45867;52.480;6.056;2023-05-29T06:12:33;102627.81;;;12.47;100.00
60015;BME280;45867;52.480;6.056;2023-05-29T06:14:59;102635.53;;;12.49;100.00
60015;BME280;45867;52.480;6.056;2023-05-29T06:17:24;102630.88;;;12.68;100.00
60015;BME280;45867;52.480;6.056;2023-05-29T06:19:52;102639.66;;;12.80;100.00
60015;BME280;45867;52.480;6.056;2023-05-29T06:22:18;102635.50;;;12.72;100.00
60015;BME280;45867;52.480;6.056;2023-05-29T06:24:44;102624.53;;;12.69;100.00
60015;BME280;45867;52.480;6.056;2023-05-29T06:27:09;102641.28;;;12.69;100.00
60015;BME280;45867;52.480;6.056;2023-05-29T06:29:34;102648.25;;;12.99;100.00
60015;BME280;45867;52.480;6.056;2023-05-29T06:32:00;102637.88;;;13.43;100.00
60015;BME280;45867;52.480;6.056;2023-05-29T06:34:25;102641.63;;;13.75;100.00
60015;BME280;45867;52.480;6.056;2023-05-29T06:36:51;102634.50;;;13.81;100.00
60015;BME280;45867;52.480;6.056;2023-05-29T06:39:16;102647.66;;;14.43;100.00
60015;BME280;45867;52.480;6.056;2023-05-29T06:41:43;102649.41;;;14.77;100.00
60015;BME280;45867;52.480;6.056;2023-05-29T06:44:08;102659.50;;;14.75;100.00
60015;BME280;45867;52.480;6.056;2023-05-29T06:46:34;102649.41;;;14.77;100.00
60015;BME280;45867;52.480;6.056;2023-05-29T06:48:59;102667.84;;;15.05;100.00
60015;BME280;45867;52.480;6.056;2023-05-29T06:51:24;102664.69;;;14.81;100.00
60015;BME280;45867;52.480;6.056;2023-05-29T06:53:50;102663.63;;;14.60;100.00
60015;BME280;45867;52.480;6.056;2023-05-29T06:56:15;102669.88;;;14.93;100.00
60015;BME280;45867;52.480;6.056;2023-05-29T06:58:40;102676.16;;;15.31;100.00
60015;BME280;45867;52.480;6.056;2023-05-29T07:01:06;102684.22;;;15.36;100.00
60015;BME280;45867;52.480;6.056;2023-05-29T07:03:31;102693.66;;;15.76;100.00
60015;BME280;45867;52.480;6.056;2023-05-29T07:05:57;102689.16;;;15.82;100.00
60015;BME280;45867;52.480;6.056;2023-05-29T07:08:23;102695.28;;;15.77;100.00
60015;BME280;45867;52.480;6.056;2023-05-29T07:10:49;102688.19;;;15.61;100.00
60015;BME280;45867;52.480;6.056;2023-05-29T07:13:16;102697.91;;;16.04;100.00
60015;BME280;45867;52.480;6.056;2023-05-29T07:15:42;102701.94;;;16.12;100.00
60015;BME280;45867;52.480;6.056;2023-05-29T07:18:07;102695.66;;;16.33;100.00
60015;BME280;45867;52.480;6.056;2023-05-29T07:20:32;102698.84;;;16.78;100.00
60015;BME280;45867;52.480;6.056;2023-05-29T07:22:58;102704.59;;;17.17;100.00
60015;BME280;45867;52.480;6.056;2023-05-29T07:25:23;102690.06;;;16.93;100.00
60015;BME280;45867;52.480;6.056;2023-05-29T07:27:48;102693.63;;;17.39;100.00
60015;BME280;45867;52.480;6.056;2023-05-29T07:30:14;102690.41;;;18.14;100.00
60015;BME280;45867;52.480;6.056;2023-05-29T07:32:40;102697.94;;;18.12;100.00
60015;BME280;45867;52.480;6.056;2023-05-29T07:35:05;102709.72;;;18.11;100.00
60015;BME280;45867;52.480;6.056;2023-05-29T07:37:31;102688.28;;;17.39;100.00
60015;BME280;45867;52.480;6.056;2023-05-29T07:39:57;102711.31;;;17.45;100.00
60015;BME280;45867;52.480;6.056;2023-05-29T07:42:22;102707.00;;;17.29;100.00
60015;BME280;45867;52.480;6.056;2023-05-29T07:44:47;102702.41;;;17.04;100.00
60015;BME280;45867;52.480;6.056;2023-05-29T07:47:13;102709.47;;;16.20;100.00
60015;BME280;45867;52.480;6.056;2023-05-29T07:49:38;102710.78;;;16.60;100.00
60015;BME280;45867;52.480;6.056;2023-05-29T07:52:04;102698.72;;;17.51;100.00
60015;BME280;45867;52.480;6.056;2023-05-29T07:54:32;102703.31;;;17.76;100.00
60015;BME280;45867;52.480;6.056;2023-05-29T07:57:01;102701.72;;;18.01;100.00
60015;BME280;45867;52.480;6.056;2023-05-29T07:59:28;102702.28;;;17.82;100.00
60015;BME280;45867;52.480;6.056;2023-05-29T08:01:54;102708.34;;;18.34;100.00
60015;BME280;45867;52.480;6.056;2023-05-29T08:04:23;102705.50;;;18.85;100.00
60015;BME280;45867;52.480;6.056;2023-05-29T08:06:48;102711.41;;;18.87;100.00
60015;BME280;45867;52.480;6.056;2023-05-29T08:09:14;102703.41;;;18.67;100.00
60015;BME280;45867;52.480;6.056;2023-05-29T08:11:39;102709.38;;;19.13;100.00
60015;BME280;45867;52.480;6.056;2023-05-29T08:14:04;102697.84;;;18.53;100.00
60015;BME280;45867;52.480;6.056;2023-05-29T08:16:30;102700.81;;;18.41;100.00
60015;BME280;45867;52.480;6.056;2023-05-29T08:18:55;102701.22;;;18.84;100.00
60015;BME280;45867;52.480;6.056;2023-05-29T08:21:21;102710.94;;;18.75;100.00
60015;BME280;45867;52.480;6.056;2023-05-29T08:23:46;102711.97;;;18.74;100.00
60015;BME280;45867;52.480;6.056;2023-05-29T08:26:12;102709.19;;;18.24;100.00
60015;BME280;45867;52.480;6.056;2023-05-29T08:28:38;102700.31;;;18.24;100.00
60015;BME280;45867;52.480;6.056;2023-05-29T08:31:04;102721.44;;;18.61;100.00
60015;BME280;45867;52.480;6.056;2023-05-29T08:33:29;102716.09;;;18.46;100.00
60015;BME280;45867;52.480;6.056;2023-05-29T08:35:57;102725.13;;;19.30;100.00
60015;BME280;45867;52.480;6.056;2023-05-29T08:38:23;102721.72;;;19.14;100.00
60015;BME280;45867;52.480;6.056;2023-05-29T08:40:51;102726.13;;;19.84;100.00
60015;BME280;45867;52.480;6.056;2023-05-29T08:43:21;102713.19;;;19.46;100.00
60015;BME280;45867;52.480;6.056;2023-05-29T08:45:47;102720.88;;;19.98;99.83
60015;BME280;45867;52.480;6.056;2023-05-29T08:48:18;102722.66;;;19.78;95.45
60015;BME280;45867;52.480;6.056;2023-05-29T08:50:45;102724.59;;;19.72;95.74
60015;BME280;45867;52.480;6.056;2023-05-29T08:53:15;102717.69;;;20.20;94.38
60015;BME280;45867;52.480;6.056;2023-05-29T08:55:41;102722.00;;;20.45;90.25
60015;BME280;45867;52.480;6.056;2023-05-29T08:58:07;102720.41;;;20.20;89.41
60015;BME280;45867;52.480;6.056;2023-05-29T09:00:33;102718.91;;;20.56;91.35
60015;BME280;45867;52.480;6.056;2023-05-29T09:02:58;102705.06;;;21.25;85.63
60015;BME280;45867;52.480;6.056;2023-05-29T09:05:28;102717.88;;;21.33;82.94
60015;BME280;45867;52.480;6.056;2023-05-29T09:07:55;102719.66;;;21.76;83.77
60015;BME280;45867;52.480;6.056;2023-05-29T09:10:20;102718.47;;;21.11;79.83
60015;BME280;45867;52.480;6.056;2023-05-29T09:12:47;102721.34;;;21.20;84.65
60015;BME280;45867;52.480;6.056;2023-05-29T09:15:20;102722.09;;;21.77;85.93
60015;BME280;45867;52.480;6.056;2023-05-29T09:17:56;102732.50;;;21.84;82.41
60015;BME280;45867;52.480;6.056;2023-05-29T09:20:25;102727.47;;;21.44;82.74
60015;BME280;45867;52.480;6.056;2023-05-29T09:25:21;102735.22;;;22.11;72.65
60015;BME280;45867;52.480;6.056;2023-05-29T09:28:09;102720.47;;;22.36;76.24
60015;BME280;45867;52.480;6.056;2023-05-29T09:30:44;102734.56;;;21.73;72.58
60015;BME280;45867;52.480;6.056;2023-05-29T09:33:11;102719.88;;;22.39;75.98
60015;BME280;45867;52.480;6.056;2023-05-29T09:35:37;102728.81;;;21.93;74.42
60015;BME280;45867;52.480;6.056;2023-05-29T09:38:04;102721.56;;;21.75;76.00
60015;BME280;45867;52.480;6.056;2023-05-29T09:40:31;102719.75;;;21.38;77.57
60015;BME280;45867;52.480;6.056;2023-05-29T09:43:19;102730.38;;;21.10;81.03
60015;BME280;45867;52.480;6.056;2023-05-29T09:45:48;102717.09;;;20.95;81.00
60015;BME280;45867;52.480;6.056;2023-05-29T09:48:16;102725.69;;;21.16;81.10
60015;BME280;45867;52.480;6.056;2023-05-29T09:50:42;102724.19;;;21.28;77.51
60015;BME280;45867;52.480;6.056;2023-05-29T09:53:19;102710.63;;;21.85;74.70
60015;BME280;45867;52.480;6.056;2023-05-29T09:55:48;102718.84;;;21.61;72.90
60015;BME280;45867;52.480;6.056;2023-05-29T09:58:23;102724.44;;;21.65;75.68
60015;BME280;45867;52.480;6.056;2023-05-29T10:00:49;102721.25;;;22.23;69.45
60015;BME280;45867;52.480;6.056;2023-05-29T10:03:16;102714.19;;;22.41;71.84
60015;BME280;45867;52.480;6.056;2023-05-29T10:05:43;102718.88;;;22.35;66.09
60015;BME280;45867;52.480;6.056;2023-05-29T10:08:12;102710.16;;;21.64;70.18
60015;BME280;45867;52.480;6.056;2023-05-29T10:10:40;102707.69;;;21.82;68.15
60015;BME280;45867;52.480;6.056;2023-05-29T10:13:11;102713.00;;;21.54;69.14
60015;BME280;45867;52.480;6.056;2023-05-29T10:15:37;102712.81;;;21.83;73.16
60015;BME280;45867;52.480;6.056;2023-05-29T10:18:09;102706.13;;;21.94;72.44
60015;BME280;45867;52.480;6.056;2023-05-29T10:20:38;102725.13;;;22.17;70.41
60015;BME280;45867;52.480;6.056;2023-05-29T10:23:04;102721.59;;;22.49;69.22
60015;BME280;45867;52.480;6.056;2023-05-29T10:25:32;102714.84;;;22.05;68.98
60015;BME280;45867;52.480;6.056;2023-05-29T10:28:01;102707.94;;;21.53;70.06
60015;BME280;45867;52.480;6.056;2023-05-29T10:30:45;102701.50;;;21.29;73.13
60015;BME280;45867;52.480;6.056;2023-05-29T10:36:16;102705.16;;;21.71;68.26
60015;BME280;45867;52.480;6.056;2023-05-29T10:38:46;102699.91;;;21.28;69.42
60015;BME280;45867;52.480;6.056;2023-05-29T10:43:56;102699.28;;;21.69;68.98
60015;BME280;45867;52.480;6.056;2023-05-29T10:49:17;102695.72;;;23.43;62.43
60015;BME280;45867;52.480;6.056;2023-05-29T10:51:43;102700.31;;;23.43;58.35
60015;BME280;45867;52.480;6.056;2023-05-29T10:54:09;102697.00;;;22.87;61.36
60015;BME280;45867;52.480;6.056;2023-05-29T10:56:34;102698.00;;;23.27;60.32
60015;BME280;45867;52.480;6.056;2023-05-29T10:59:00;102693.47;;;23.68;57.77
60015;BME280;45867;52.480;6.056;2023-05-29T11:01:29;102702.34;;;24.22;55.35
60015;BME280;45867;52.480;6.056;2023-05-29T11:06:40;102704.44;;;24.25;55.11
60015;BME280;45867;52.480;6.056;2023-05-29T11:09:05;102702.06;;;24.32;51.59
60015;BME280;45867;52.480;6.056;2023-05-29T11:11:33;102704.91;;;24.85;50.97
60015;BME280;45867;52.480;6.056;2023-05-29T11:14:03;102714.16;;;24.84;51.00
60015;BME280;45867;52.480;6.056;2023-05-29T11:18:55;102707.41;;;24.46;48.00
60015;BME280;45867;52.480;6.056;2023-05-29T11:24:27;102709.16;;;24.11;57.97
60015;BME280;45867;52.480;6.056;2023-05-29T11:26:54;102703.34;;;24.26;53.21
60015;BME280;45867;52.480;6.056;2023-05-29T11:29:24;102700.06;;;24.47;53.05
60015;BME280;45867;52.480;6.056;2023-05-29T11:32:02;102709.25;;;23.43;53.42
60015;BME280;45867;52.480;6.056;2023-05-29T11:34:29;102717.94;;;22.81;57.47
60015;BME280;45867;52.480;6.056;2023-05-29T11:37:01;102710.53;;;23.23;60.21
60015;BME280;45867;52.480;6.056;2023-05-29T11:39:28;102708.44;;;23.88;57.59
60015;BME280;45867;52.480;6.056;2023-05-29T11:41:54;102712.44;;;24.96;53.16
60015;BME280;45867;52.480;6.056;2023-05-29T11:44:20;102710.44;;;24.53;49.32
60015;BME280;45867;52.480;6.056;2023-05-29T11:46:46;102713.53;;;24.69;53.96
60015;BME280;45867;52.480;6.056;2023-05-29T11:49:11;102720.22;;;25.50;50.30
60015;BME280;45867;52.480;6.056;2023-05-29T11:51:37;102708.91;;;24.87;48.89
60015;BME280;45867;52.480;6.056;2023-05-29T11:54:02;102713.22;;;24.88;48.32
60015;BME280;45867;52.480;6.056;2023-05-29T11:56:28;102722.16;;;25.15;46.76
60015;BME280;45867;52.480;6.056;2023-05-29T11:58:55;102719.63;;;25.18;46.55
60015;BME280;45867;52.480;6.056;2023-05-29T12:01:23;102710.34;;;25.28;48.31
60015;BME280;45867;52.480;6.056;2023-05-29T12:03:49;102710.00;;;25.12;47.86
60015;BME280;45867;52.480;6.056;2023-05-29T12:06:14;102713.38;;;25.00;51.09
60015;BME280;45867;52.480;6.056;2023-05-29T12:08:40;102707.03;;;24.39;55.34
60015;BME280;45867;52.480;6.056;2023-05-29T12:11:06;102703.69;;;24.42;49.16
60015;BME280;45867;52.480;6.056;2023-05-29T12:13:32;102700.44;;;24.80;48.49
60015;BME280;45867;52.480;6.056;2023-05-29T12:15:59;102702.03;;;24.72;48.65
60015;BME280;45867;52.480;6.056;2023-05-29T12:18:26;102690.41;;;23.61;57.52
60015;BME280;45867;52.480;6.056;2023-05-29T12:21:02;102695.94;;;23.78;53.39
60015;BME280;45867;52.480;6.056;2023-05-29T12:23:28;102688.16;;;24.17;53.11
60015;BME280;45867;52.480;6.056;2023-05-29T12:25:55;102691.25;;;24.41;49.12
60015;BME280;45867;52.480;6.056;2023-05-29T12:28:20;102696.78;;;24.19;48.47
60015;BME280;45867;52.480;6.056;2023-05-29T12:30:47;102693.09;;;24.14;49.47
60015;BME280;45867;52.480;6.056;2023-05-29T12:33:33;102689.56;;;23.52;50.62
60015;BME280;45867;52.480;6.056;2023-05-29T12:36:04;102691.19;;;23.30;57.48
60015;BME280;45867;52.480;6.056;2023-05-29T12:38:30;102692.34;;;23.15;60.89
60015;BME280;45867;52.480;6.056;2023-05-29T12:40:55;102693.28;;;23.87;58.18
60015;BME280;45867;52.480;6.056;2023-05-29T12:43:21;102700.16;;;23.39;54.75
60015;BME280;45867;52.480;6.056;2023-05-29T12:45:54;102693.41;;;22.92;55.95
60015;BME280;45867;52.480;6.056;2023-05-29T12:48:20;102691.53;;;23.37;60.55
60015;BME280;45867;52.480;6.056;2023-05-29T12:50:48;102687.50;;;23.71;58.99
60015;BME280;45867;52.480;6.056;2023-05-29T12:53:15;102690.59;;;24.27;57.87
60015;BME280;45867;52.480;6.056;2023-05-29T12:55:44;102703.91;;;24.63;54.91
60015;BME280;45867;52.480;6.056;2023-05-29T12:58:14;102699.19;;;24.29;55.60
60015;BME280;45867;52.480;6.056;2023-05-29T13:00:41;102701.53;;;23.59;54.56
60015;BME280;45867;52.480;6.056;2023-05-29T13:03:07;102696.63;;;23.84;54.60
60015;BME280;45867;52.480;6.056;2023-05-29T13:05:33;102689.44;;;24.19;54.34
60015;BME280;45867;52.480;6.056;2023-05-29T13:07:59;102687.34;;;24.91;55.27
60015;BME280;45867;52.480;6.056;2023-05-29T13:10:26;102693.28;;;24.27;49.68